createdAt,value
2022-11-21T00:01:34.841Z,100307.97
2022-11-21T00:04:03.838Z,100300.31
2022-11-21T00:06:32.459Z,100289.69
2022-11-21T00:09:01.359Z,100286.03
2022-11-21T00:11:29.907Z,100276.53
2022-11-21T00:13:59.917Z,100267.28
2022-11-21T00:16:28.489Z,100269.66
2022-11-21T00:18:57.896Z,100270.53
2022-11-21T00:21:26.432Z,100279.44
2022-11-21T00:23:55.278Z,100288.50
2022-11-21T00:26:23.872Z,100293.81
2022-11-21T00:28:52.630Z,100292.13
2022-11-21T00:31:23.199Z,100294.06
2022-11-21T00:33:53.447Z,100297.41
2022-11-21T00:36:22.012Z,100299.34
2022-11-21T00:38:51.199Z,100298.91
2022-11-21T00:41:19.711Z,100301.31
2022-11-21T00:43:48.698Z,100289.25
2022-11-21T00:46:17.207Z,100283.25
2022-11-21T00:48:46.137Z,100293.63
2022-11-21T00:51:15.171Z,100296.25
2022-11-21T00:53:44.068Z,100293.72
2022-11-21T00:56:12.552Z,100282.81
2022-11-21T00:58:41.440Z,100301.81
2022-11-21T01:01:13.359Z,100297.63
2022-11-21T01:03:42.655Z,100292.31
2022-11-21T01:06:13.507Z,100294.13
2022-11-21T01:08:44.056Z,100296.78
2022-11-21T01:11:18.398Z,100282.41
2022-11-21T01:13:48.492Z,100284.59
2022-11-21T01:16:20.597Z,100265.56
2022-11-21T01:18:50.209Z,100278.44
2022-11-21T01:21:24.192Z,100270.50
2022-11-21T01:23:53.420Z,100266.13
2022-11-21T01:26:25.339Z,100268.19
2022-11-21T01:28:55.500Z,100268.91
2022-11-21T01:31:27.971Z,100271.56
2022-11-21T01:33:59.772Z,100265.06
2022-11-21T01:36:30.905Z,100276.28
2022-11-21T01:39:05.170Z,100288.56
2022-11-21T01:41:45.163Z,100292.31
2022-11-21T01:44:24.750Z,100284.59
2022-11-21T01:46:53.535Z,100294.25
2022-11-21T01:49:32.523Z,100304.75
2022-11-21T01:52:10.255Z,100298.72
2022-11-21T01:55:08.461Z,100291.13
2022-11-21T01:57:44.484Z,100298.84
2022-11-21T02:00:28.272Z,100291.00
2022-11-21T02:03:01.032Z,100295.47
2022-11-21T02:05:31.344Z,100298.25
2022-11-21T02:08:04.367Z,100292.94
2022-11-21T02:10:35.339Z,100287.63
2022-11-21T02:13:03.833Z,100297.41
2022-11-21T02:15:32.683Z,100289.69
2022-11-21T02:18:01.172Z,100296.56
2022-11-21T02:20:30.092Z,100285.25
2022-11-21T02:23:27.513Z,100280.06
2022-11-21T02:25:56.372Z,100279.19
2022-11-21T02:28:24.904Z,100276.56
2022-11-21T02:30:53.812Z,100277.53
2022-11-21T02:33:22.412Z,100281.16
2022-11-21T02:36:01.496Z,100274.16
2022-11-21T02:38:36.904Z,100280.44
2022-11-21T02:41:26.933Z,100272.47
2022-11-21T02:44:03.361Z,100266.34
2022-11-21T02:46:32.252Z,100269.00
2022-11-21T02:49:00.822Z,100260.44
2022-11-21T02:51:29.573Z,100255.13
2022-11-21T02:53:58.101Z,100253.34
2022-11-21T02:56:28.655Z,100242.00
2022-11-21T02:58:57.412Z,100242.88
2022-11-21T03:01:26.293Z,100239.34
2022-11-21T03:03:54.890Z,100240.34
2022-11-21T03:06:23.643Z,100239.50
2022-11-21T03:08:53.402Z,100226.75
2022-11-21T03:11:22.265Z,100231.53
2022-11-21T03:13:50.841Z,100216.88
2022-11-21T03:16:19.711Z,100214.06
2022-11-21T03:18:48.271Z,100212.41
2022-11-21T03:21:18.590Z,100210.56
2022-11-21T03:23:47.052Z,100212.50
2022-11-21T03:26:15.872Z,100214.34
2022-11-21T03:28:44.428Z,100208.44
2022-11-21T03:31:14.518Z,100216.97
2022-11-21T03:33:43.193Z,100211.81
2022-11-21T03:36:12.077Z,100213.72
2022-11-21T03:38:41.244Z,100217.22
2022-11-21T03:41:30.390Z,100222.63
2022-11-21T03:44:05.243Z,100210.38
2022-11-21T03:46:39.308Z,100206.03
2022-11-21T03:49:08.153Z,100212.44
2022-11-21T03:51:37.125Z,100200.28
2022-11-21T03:54:05.985Z,100199.06
2022-11-21T03:56:35.052Z,100190.63
2022-11-21T03:59:04.376Z,100183.38
2022-11-21T04:01:36.559Z,100180.16
2022-11-21T04:04:06.156Z,100186.03
2022-11-21T04:06:36.642Z,100184.38
2022-11-21T04:09:05.185Z,100188.81
2022-11-21T04:11:35.224Z,100187.97
2022-11-21T04:14:03.933Z,100191.63
2022-11-21T04:16:32.844Z,100192.84
2022-11-21T04:19:01.495Z,100195.22
2022-11-21T04:21:30.751Z,100192.56
2022-11-21T04:23:59.398Z,100200.50
2022-11-21T04:26:29.368Z,100194.38
2022-11-21T04:28:58.697Z,100196.31
2022-11-21T04:31:27.525Z,100207.75
2022-11-21T04:33:55.986Z,100198.50
2022-11-21T04:36:24.892Z,100207.75
2022-11-21T04:38:53.514Z,100192.25
2022-11-21T04:41:22.474Z,100191.63
2022-11-21T04:43:50.987Z,100194.97
2022-11-21T04:46:19.852Z,100186.16
2022-11-21T04:48:48.354Z,100185.81
2022-11-21T04:51:17.425Z,100188.66
2022-11-21T04:53:45.955Z,100186.47
2022-11-21T04:56:17.645Z,100190.88
2022-11-21T04:58:46.183Z,100190.50
2022-11-21T05:01:15.060Z,100191.53
2022-11-21T05:03:43.734Z,100193.56
2022-11-21T05:06:12.603Z,100188.72
2022-11-21T05:08:41.155Z,100191.94
2022-11-21T05:11:28.883Z,100189.94
2022-11-21T05:13:57.615Z,100193.69
2022-11-21T05:16:26.454Z,100197.13
2022-11-21T05:18:55.022Z,100196.72
2022-11-21T05:21:25.257Z,100193.44
2022-11-21T05:23:53.816Z,100187.59
2022-11-21T05:26:22.700Z,100185.66
2022-11-21T05:28:51.243Z,100189.88
2022-11-21T05:31:20.223Z,100186.81
2022-11-21T05:33:48.773Z,100181.50
2022-11-21T05:36:17.633Z,100168.91
2022-11-21T05:38:46.253Z,100178.28
2022-11-21T05:41:15.152Z,100176.16
2022-11-21T05:43:47.226Z,100162.88
2022-11-21T05:46:23.103Z,100169.19
2022-11-21T05:48:52.993Z,100159.22
2022-11-21T05:51:22.473Z,100156.28
2022-11-21T05:53:51.093Z,100154.16
2022-11-21T05:56:20.279Z,100144.34
2022-11-21T05:58:48.995Z,100155.66
2022-11-21T06:01:37.897Z,100155.41
2022-11-21T06:04:07.153Z,100150.34
2022-11-21T06:06:37.467Z,100152.84
2022-11-21T06:09:06.113Z,100166.09
2022-11-21T06:11:35.034Z,100174.78
2022-11-21T06:14:03.743Z,100169.75
2022-11-21T06:16:32.764Z,100173.19
2022-11-21T06:19:01.472Z,100178.78
2022-11-21T06:21:30.604Z,100170.13
2022-11-21T06:23:59.305Z,100158.44
2022-11-21T06:26:28.575Z,100154.66
2022-11-21T06:28:57.385Z,100148.09
2022-11-21T06:31:27.395Z,100141.03
2022-11-21T06:33:58.334Z,100141.88
2022-11-21T06:36:27.498Z,100150.59
2022-11-21T06:38:56.405Z,100150.06
2022-11-21T06:41:31.108Z,100157.59
2022-11-21T06:44:01.655Z,100146.69
2022-11-21T06:46:30.674Z,100168.91
2022-11-21T06:48:59.213Z,100176.16
2022-11-21T06:51:28.265Z,100165.50
2022-11-21T06:53:59.312Z,100165.44
2022-11-21T06:56:31.753Z,100164.03
2022-11-21T06:59:00.494Z,100163.69
2022-11-21T07:01:30.719Z,100170.00
2022-11-21T07:03:59.416Z,100173.09
2022-11-21T07:06:28.334Z,100180.78
2022-11-21T07:11:45.994Z,100185.84
2022-11-21T07:14:14.615Z,100185.25
2022-11-21T07:16:44.845Z,100187.34
2022-11-21T07:19:13.505Z,100185.78
2022-11-21T07:21:44.196Z,100183.53
2022-11-21T07:24:13.024Z,100188.56
2022-11-21T07:26:41.945Z,100194.72
2022-11-21T07:29:10.665Z,100201.41
2022-11-21T07:31:39.662Z,100211.28
2022-11-21T07:34:08.306Z,100200.81
2022-11-21T07:36:38.731Z,100216.47
2022-11-21T07:39:07.366Z,100214.94
2022-11-21T07:41:36.545Z,100218.69
2022-11-21T07:44:05.964Z,100216.28
2022-11-21T07:46:34.873Z,100225.06
2022-11-21T07:49:03.946Z,100226.59
2022-11-21T07:51:34.524Z,100221.28
2022-11-21T07:54:03.396Z,100216.09
2022-11-21T07:56:33.756Z,100214.03
2022-11-21T07:59:02.465Z,100210.06
2022-11-21T08:01:33.368Z,100215.25
2022-11-21T08:04:01.992Z,100217.03
2022-11-21T08:06:32.035Z,100216.22
2022-11-21T08:09:00.639Z,100213.97
2022-11-21T08:11:31.275Z,100222.13
2022-11-21T08:14:00.037Z,100214.16
2022-11-21T08:16:30.825Z,100216.94
2022-11-21T08:19:02.386Z,100218.06
2022-11-21T08:21:32.146Z,100220.94
2022-11-21T08:24:00.854Z,100213.38
2022-11-21T08:26:30.937Z,100201.47
2022-11-21T08:29:00.155Z,100203.16
2022-11-21T08:31:30.277Z,100202.19
2022-11-21T08:33:58.885Z,100202.19
2022-11-21T08:36:27.827Z,100206.78
2022-11-21T08:38:56.529Z,100205.81
2022-11-21T08:41:43.755Z,100200.75
2022-11-21T08:44:14.277Z,100195.59
2022-11-21T08:46:43.644Z,100192.44
2022-11-21T08:49:12.204Z,100194.81
2022-11-21T08:51:41.095Z,100195.81
2022-11-21T08:54:10.507Z,100197.34
2022-11-21T08:56:39.444Z,100185.91
2022-11-21T08:59:08.026Z,100192.38
2022-11-21T09:01:37.742Z,100190.09
2022-11-21T09:04:07.124Z,100175.72
2022-11-21T09:06:36.320Z,100163.63
2022-11-21T09:09:08.705Z,100169.13
2022-11-21T09:11:40.228Z,100175.84
2022-11-21T09:14:27.398Z,100176.53
2022-11-21T09:17:15.925Z,100171.13
2022-11-21T09:19:44.614Z,100179.38
2022-11-21T09:22:14.781Z,100183.38
2022-11-21T09:24:43.298Z,100185.34
2022-11-21T09:27:13.263Z,100192.66
2022-11-21T09:29:41.812Z,100184.69
2022-11-21T09:32:10.606Z,100184.31
2022-11-21T09:34:39.123Z,100186.09
2022-11-21T09:37:07.952Z,100186.69
2022-11-21T09:39:36.573Z,100184.31
2022-11-21T09:42:28.132Z,100174.06
2022-11-21T09:45:10.482Z,100172.13
2022-11-21T09:47:45.891Z,100174.25
2022-11-21T09:50:20.170Z,100160.84
2022-11-21T09:52:59.883Z,100158.06
2022-11-21T09:55:43.423Z,100159.59
2022-11-21T09:58:38.273Z,100158.53
2022-11-21T10:01:07.355Z,100152.75
2022-11-21T10:03:51.042Z,100158.31
2022-11-21T10:06:22.465Z,100154.53
2022-11-21T10:09:19.486Z,100159.56
2022-11-21T10:12:37.355Z,100169.09
2022-11-21T10:15:38.626Z,100150.19
2022-11-21T10:18:28.622Z,100152.84
2022-11-21T10:21:16.510Z,100151.47
2022-11-21T10:24:16.773Z,100147.28
2022-11-21T10:27:03.533Z,100126.31
2022-11-21T10:29:42.272Z,100131.88
2022-11-21T10:43:57.873Z,100123.31
2022-11-21T11:56:34.996Z,100015.72
2022-11-21T14:17:15.062Z,99898.00
2022-11-21T15:15:52.937Z,99927.25
2022-11-21T15:39:16.986Z,99899.06
2022-11-21T17:14:37.448Z,99789.56
2022-11-21T18:27:20.529Z,99727.78
2022-11-21T20:06:32.042Z,99634.31
2022-11-21T20:39:43.183Z,99629.09
2022-11-21T20:59:38.290Z,99630.03
2022-11-21T21:08:34.980Z,99621.69
2022-11-21T21:24:22.531Z,99617.09
2022-11-21T23:16:15.323Z,99436.47
2022-11-21T23:33:16.445Z,99399.38
